OITK  Khoy Airport

Add Bookmark

Khoy, Iran

Status IATA
Operational KHY
Latitude Longitude
38° 25' 39" N 44° 58' 24" E
38.427502 44.973598
Local (DST + 5) UTC (GMT + 4)
Nov 1, 2014 03:08 Nov 1, 2014 11:38
Sunrise-Sunset Local UTC
Begin Civil Twilight 06:27 02:57
Sunrise 06:55 03:25
Sunset 05:32 14:02
End Civil Twilight 05:59 14:29

Current Weather

METAR Observed VFR
OITK 011100Z 18006KT 9999 FEW035CB SCT040 BKN190 16/03 Q1008 Sat, Nov 1, 2014 @ 11:00 UTC
(38 Minutes ago)
Visual Flight Rules
Wind Visibility Clouds Conditions
180° at 6 knots (11 kph) 10 km or more
  • Few at 3,500' AGL
  • Scattered at 4,000' AGL
  • Broken at 19,000' AGL
  • No significant weather
Temperatures Readings Precipitation
Current Temp 16°C (61°F)
Dewpoint 3°C (37°F)
Humidity 42%
Altimeter 29.76"Hg
Sea Level Pressure 1008mb
Field Elevation 3631.89'
None Recorded

Additional weather within a 92.6km radius of OITK

Map ICAO Location
OITR 84.8km S (174°)

24 Hour Weather History

Loading
-

24 Hour Weather Graphs

Loading
-

CheckWX.com is intended as a tool to help pilots better visualize weather data. It is not intended as a substitute for an official weather briefing obtained from a Flight Service Station. CheckWX.com does not meet the FAA requirements for an official pre-flight weather briefing. Therefore, it's important that pilots still call and obtain an official FSS pre-flight weather briefing.